Time;durP1;ratioP1;P1;durP2;ratioP2;P2;SDS_P1;SDS_P2;PMS_P1;PMS_P2;Temp;Humidity;BMP_temperature;BMP_pressure;BME280_temperature;BME280_humidity;BME280_pressure;Samples;Min_cycle;Max_cycle;Signal;HPM_P1;HPM_P2
2022/09/15 00:02:18;;;;;;;1.43;1.10;;;18.10;99.90;;;;;;5010034;28;20690;-79
2022/09/15 00:04:45;;;;;;;1.70;1.50;;;18.10;99.90;;;;;;5009612;28;20621;-78
2022/09/15 00:07:12;;;;;;;3.40;1.17;;;18.10;99.90;;;;;;5010885;28;20632;-79
2022/09/15 00:09:39;;;;;;;1.77;1.20;;;18.00;99.90;;;;;;5010215;28;20629;-79
2022/09/15 00:12:06;;;;;;;0.83;0.80;;;18.00;99.90;;;;;;5010210;28;20630;-78
2022/09/15 00:14:32;;;;;;;1.93;1.27;;;18.00;99.90;;;;;;5010933;28;20667;-79
2022/09/15 00:17:01;;;;;;;1.40;1.10;;;18.00;99.90;;;;;;5010444;28;20628;-78
2022/09/15 00:19:27;;;;;;;0.87;0.80;;;18.00;99.90;;;;;;5010730;28;20636;-79
2022/09/15 00:21:54;;;;;;;1.70;0.73;;;18.00;99.90;;;;;;5010997;28;20639;-79
2022/09/15 00:24:21;;;;;;;1.23;0.90;;;18.00;99.90;;;;;;5011724;28;20617;-78
2022/09/15 00:26:48;;;;;;;0.60;0.60;;;18.10;99.90;;;;;;5012144;28;20739;-79
2022/09/15 00:29:14;;;;;;;1.13;0.70;;;18.10;99.90;;;;;;5012735;28;21262;-80
2022/09/15 00:31:41;;;;;;;0.80;0.80;;;18.10;99.90;;;;;;5010894;28;20621;-78
2022/09/15 00:34:12;;;;;;;0.77;0.77;;;18.10;99.90;;;;;;5010287;28;20628;-79
2022/09/15 00:36:39;;;;;;;0.50;0.50;;;18.10;99.90;;;;;;5007764;28;21272;-78
2022/09/15 00:39:06;;;;;;;0.60;0.60;;;18.10;99.90;;;;;;5010797;28;21253;-78
2022/09/15 00:41:33;;;;;;;1.00;0.80;;;18.10;99.90;;;;;;5011133;28;20639;-79
2022/09/15 00:44:02;;;;;;;0.97;0.80;;;18.10;99.90;;;;;;5012313;28;20659;-78
2022/09/15 00:46:32;;;;;;;0.67;0.67;;;18.00;99.90;;;;;;5012228;28;20731;-78
2022/09/15 00:49:03;;;;;;;0.63;0.63;;;18.00;99.90;;;;;;5012160;28;21193;-79
2022/09/15 00:51:36;;;;;;;0.57;0.57;;;18.00;99.90;;;;;;5011832;28;20751;-78
2022/09/15 00:54:06;;;;;;;1.10;1.00;;;18.00;99.90;;;;;;5011931;28;20633;-77
2022/09/15 00:56:34;;;;;;;1.10;1.00;;;18.00;99.90;;;;;;5011535;28;21206;-79
2022/09/15 00:59:04;;;;;;;1.67;0.80;;;18.00;99.90;;;;;;5009876;28;20639;-78
2022/09/15 01:01:32;;;;;;;1.07;1.00;;;18.00;99.90;;;;;;5012630;28;21240;-78
2022/09/15 01:04:00;;;;;;;2.20;0.97;;;18.00;99.90;;;;;;5009922;28;20670;-79
2022/09/15 01:06:31;;;;;;;0.73;0.73;;;18.00;99.90;;;;;;5010804;28;20636;-79
2022/09/15 01:09:06;;;;;;;0.90;0.90;;;18.00;99.90;;;;;;5011058;28;20628;-78
2022/09/15 01:11:33;;;;;;;1.07;0.70;;;17.90;99.90;;;;;;5011662;28;20628;-78
2022/09/15 01:14:01;;;;;;;0.90;0.90;;;17.90;99.90;;;;;;5011704;28;20707;-79
2022/09/15 01:16:45;;;;;;;0.70;0.70;;;17.90;99.90;;;;;;5012137;28;20633;-79
2022/09/15 01:19:50;;;;;;;0.80;0.80;;;17.90;99.90;;;;;;5011903;28;20631;-79
2022/09/15 01:22:33;;;;;;;0.70;0.70;;;17.90;99.90;;;;;;4955679;28;20642;-78
2022/09/15 01:25:09;;;;;;;1.20;1.10;;;17.80;99.90;;;;;;5011065;28;20996;-78
2022/09/15 01:28:13;;;;;;;0.67;0.67;;;17.80;99.90;;;;;;5010231;28;20627;-79
2022/09/15 01:30:46;;;;;;;0.70;0.70;;;17.80;99.90;;;;;;5009234;28;20665;-79
2022/09/15 01:33:24;;;;;;;1.20;0.93;;;17.80;99.90;;;;;;5010699;28;20694;-78
2022/09/15 01:35:59;;;;;;;0.80;0.80;;;17.80;99.90;;;;;;5007355;28;20632;-79
2022/09/15 01:38:43;;;;;;;1.03;0.70;;;17.80;99.90;;;;;;5010828;28;20661;-78
2022/09/15 01:41:16;;;;;;;0.67;0.67;;;17.80;99.90;;;;;;5011413;28;20727;-79
2022/09/15 01:43:51;;;;;;;2.07;0.93;;;17.80;99.90;;;;;;5011117;28;20668;-78
2022/09/15 01:46:23;;;;;;;2.40;1.23;;;17.70;99.90;;;;;;5010617;28;20654;-78
2022/09/15 01:48:53;;;;;;;0.70;0.70;;;17.80;99.90;;;;;;5006563;28;20628;-78
2022/09/15 01:51:23;;;;;;;0.93;0.93;;;17.80;99.90;;;;;;5010580;28;20628;-78
2022/09/15 01:53:52;;;;;;;0.97;0.87;;;17.80;99.90;;;;;;5009919;28;20682;-78
2022/09/15 01:56:20;;;;;;;0.80;0.60;;;17.90;99.90;;;;;;5009122;28;20628;-78
2022/09/15 01:58:49;;;;;;;0.93;0.83;;;17.80;99.90;;;;;;4999472;28;20641;-78
2022/09/15 02:01:25;;;;;;;0.87;0.87;;;17.80;99.90;;;;;;5009031;28;20632;-78
2022/09/15 02:03:56;;;;;;;0.80;0.80;;;17.80;99.90;;;;;;5011034;28;20681;-79
2022/09/15 02:06:35;;;;;;;0.80;0.80;;;17.70;99.90;;;;;;5010682;28;20631;-79
2022/09/15 02:09:07;;;;;;;0.80;0.80;;;17.70;99.90;;;;;;5011217;28;20631;-78
2022/09/15 02:11:35;;;;;;;0.60;0.43;;;17.70;99.90;;;;;;5010644;28;21251;-78
2022/09/15 02:14:12;;;;;;;0.70;0.67;;;17.80;99.90;;;;;;4993460;28;20625;-77
2022/09/15 02:16:46;;;;;;;1.37;0.60;;;17.80;99.90;;;;;;5012416;28;20631;-78
2022/09/15 02:19:20;;;;;;;0.70;0.70;;;17.80;99.90;;;;;;5012948;28;20628;-78
2022/09/15 02:21:54;;;;;;;1.17;0.50;;;17.70;99.90;;;;;;5013741;28;20658;-78
2022/09/15 02:24:28;;;;;;;0.50;0.50;;;17.70;99.90;;;;;;5012842;28;21315;-78
2022/09/15 02:26:57;;;;;;;1.33;1.10;;;17.70;99.90;;;;;;5013711;28;20627;-78
2022/09/15 02:29:27;;;;;;;0.50;0.50;;;17.70;99.90;;;;;;5012509;28;20620;-78
2022/09/15 02:31:58;;;;;;;1.30;0.70;;;17.70;99.90;;;;;;5013082;28;20663;-79
2022/09/15 02:34:30;;;;;;;0.60;0.53;;;17.70;99.90;;;;;;5012812;28;20728;-78
2022/09/15 02:36:59;;;;;;;0.50;0.50;;;17.60;99.90;;;;;;5013767;28;21189;-79
2022/09/15 02:39:31;;;;;;;0.70;0.70;;;17.70;99.90;;;;;;5013075;28;21248;-79
2022/09/15 02:42:01;;;;;;;0.83;0.80;;;17.70;99.90;;;;;;5013587;28;20678;-78
2022/09/15 02:44:29;;;;;;;0.83;0.60;;;17.70;99.90;;;;;;5012399;28;20754;-78
2022/09/15 02:46:59;;;;;;;1.33;0.90;;;17.70;99.90;;;;;;5010690;28;20631;-78
2022/09/15 02:49:26;;;;;;;0.73;0.57;;;17.70;99.90;;;;;;5014268;28;21109;-78
2022/09/15 02:51:54;;;;;;;0.60;0.60;;;17.80;99.90;;;;;;5013897;28;20638;-78
2022/09/15 02:54:22;;;;;;;0.80;0.77;;;17.70;99.90;;;;;;5013544;28;20639;-78
2022/09/15 02:56:50;;;;;;;2.10;1.07;;;17.60;99.90;;;;;;5014715;28;21252;-78
2022/09/15 02:59:17;;;;;;;0.93;0.53;;;17.60;99.90;;;;;;5005278;28;20616;-78
2022/09/15 03:01:46;;;;;;;1.07;0.63;;;17.70;99.90;;;;;;5013249;28;20723;-77
2022/09/15 03:04:14;;;;;;;0.53;0.53;;;17.60;99.90;;;;;;5004875;28;21055;-78
2022/09/15 03:06:42;;;;;;;1.10;1.00;;;17.70;99.90;;;;;;5012576;28;21169;-78
2022/09/15 03:09:09;;;;;;;0.67;0.67;;;17.60;99.90;;;;;;5009151;28;20625;-79
2022/09/15 03:11:36;;;;;;;0.63;0.63;;;17.60;99.90;;;;;;5013927;28;20636;-77
2022/09/15 03:14:05;;;;;;;1.10;1.00;;;17.70;99.90;;;;;;5011714;28;20628;-83
2022/09/15 03:16:34;;;;;;;1.50;0.97;;;17.60;99.90;;;;;;5013727;28;20628;-79
2022/09/15 03:19:01;;;;;;;2.17;0.80;;;17.60;99.90;;;;;;5013491;28;20632;-79
2022/09/15 03:21:30;;;;;;;0.80;0.73;;;17.60;99.90;;;;;;5013777;28;20620;-79
2022/09/15 03:23:57;;;;;;;2.00;1.83;;;17.60;99.90;;;;;;5012300;28;20663;-77
2022/09/15 03:26:25;;;;;;;0.57;0.43;;;17.60;99.90;;;;;;5011734;28;20616;-78
2022/09/15 03:28:52;;;;;;;1.50;0.70;;;17.60;99.90;;;;;;5012839;28;20655;-78
2022/09/15 03:31:19;;;;;;;0.90;0.90;;;17.60;99.90;;;;;;5012833;28;21101;-77
2022/09/15 03:33:46;;;;;;;0.50;0.50;;;17.70;99.90;;;;;;5012087;28;21297;-79
2022/09/15 03:36:12;;;;;;;0.83;0.50;;;17.70;99.90;;;;;;5011773;28;20616;-78
2022/09/15 03:38:41;;;;;;;0.90;0.90;;;17.60;99.90;;;;;;5011462;28;20706;-78
2022/09/15 03:41:10;;;;;;;0.60;0.60;;;17.60;99.90;;;;;;5010197;28;20630;-80
2022/09/15 03:43:38;;;;;;;0.50;0.50;;;17.60;99.90;;;;;;5010996;28;20714;-78
2022/09/15 03:46:06;;;;;;;1.33;0.80;;;17.50;99.90;;;;;;5010707;28;20648;-79
2022/09/15 03:48:35;;;;;;;0.53;0.53;;;17.60;99.90;;;;;;5011282;28;20634;-79
2022/09/15 03:51:03;;;;;;;0.97;0.97;;;17.50;99.90;;;;;;5010924;28;21040;-80
2022/09/15 03:53:32;;;;;;;1.60;0.70;;;17.50;99.90;;;;;;5010735;28;20700;-79
2022/09/15 03:56:09;;;;;;;0.73;0.50;;;17.50;99.90;;;;;;5010963;28;20616;-79
2022/09/15 03:58:36;;;;;;;0.50;0.40;;;17.50;99.90;;;;;;5003229;28;21194;-78
2022/09/15 04:01:03;;;;;;;0.60;0.60;;;17.40;99.90;;;;;;4991861;28;20621;-77
2022/09/15 04:03:30;;;;;;;0.67;0.67;;;17.50;99.90;;;;;;5003722;28;20739;-79
2022/09/15 04:05:57;;;;;;;0.60;0.60;;;;;;;;;;5004328;28;20639;-81
2022/09/15 04:08:24;;;;;;;0.60;0.60;;;17.40;99.90;;;;;;5010472;28;21225;-78
2022/09/15 04:10:51;;;;;;;1.67;1.00;;;17.40;99.90;;;;;;5011125;28;20650;-78
2022/09/15 04:13:20;;;;;;;0.57;0.57;;;17.40;99.90;;;;;;5011851;28;20640;-78
2022/09/15 04:15:48;;;;;;;0.50;0.50;;;17.40;99.90;;;;;;5011070;28;21224;-78
2022/09/15 04:18:14;;;;;;;0.60;0.53;;;16.80;99.90;;;;;;5011188;28;20636;-78
2022/09/15 04:20:41;;;;;;;1.00;0.70;;;17.30;99.90;;;;;;5010726;28;20635;-78
2022/09/15 04:23:08;;;;;;;4.63;0.97;;;17.30;99.90;;;;;;5012821;28;20636;-77
2022/09/15 04:25:35;;;;;;;0.60;0.60;;;17.20;99.90;;;;;;5010715;28;20628;-78
2022/09/15 04:28:02;;;;;;;0.63;0.63;;;17.10;99.90;;;;;;5010916;28;21018;-79
2022/09/15 04:30:30;;;;;;;0.70;0.50;;;17.20;99.90;;;;;;5010411;28;20631;-77
2022/09/15 04:32:57;;;;;;;1.37;0.80;;;17.10;99.90;;;;;;5001002;28;20620;-80
2022/09/15 04:35:25;;;;;;;0.67;0.60;;;;;;;;;;4996519;28;20645;-76
2022/09/15 04:37:54;;;;;;;0.60;0.60;;;17.20;99.90;;;;;;4998049;28;20629;-77
2022/09/15 04:40:23;;;;;;;0.90;0.40;;;17.20;99.90;;;;;;5005389;28;20728;-76
2022/09/15 04:42:49;;;;;;;0.80;0.80;;;17.20;99.90;;;;;;5010795;28;20634;-79
2022/09/15 04:45:16;;;;;;;0.77;0.77;;;17.20;99.90;;;;;;5010730;28;20668;-78
2022/09/15 04:47:47;;;;;;;0.50;0.50;;;17.20;99.90;;;;;;4997402;28;20629;-77
2022/09/15 04:50:14;;;;;;;0.90;0.90;;;17.20;99.90;;;;;;4998880;28;20671;-76
2022/09/15 04:52:40;;;;;;;0.87;0.60;;;17.20;99.90;;;;;;5006800;28;21098;-76
2022/09/15 04:55:08;;;;;;;0.70;0.70;;;17.10;99.90;;;;;;4992673;28;20641;-76
2022/09/15 04:57:35;;;;;;;0.40;0.40;;;17.10;99.90;;;;;;4999594;28;20638;-76
2022/09/15 05:00:04;;;;;;;0.60;0.50;;;17.10;99.90;;;;;;5002318;28;20679;-76
2022/09/15 05:02:32;;;;;;;0.60;0.60;;;17.00;99.90;;;;;;4999887;28;20656;-76
2022/09/15 05:05:01;;;;;;;0.80;0.70;;;17.10;99.90;;;;;;4999976;28;20873;-77
2022/09/15 05:07:27;;;;;;;0.50;0.47;;;17.00;99.90;;;;;;5007188;28;20983;-75
2022/09/15 05:09:54;;;;;;;0.40;0.33;;;17.00;99.90;;;;;;5007910;28;20642;-76
2022/09/15 05:12:21;;;;;;;0.67;0.67;;;17.00;99.90;;;;;;5007541;28;20631;-76
2022/09/15 05:14:48;;;;;;;0.70;0.70;;;17.20;99.90;;;;;;5006763;28;20632;-76
2022/09/15 05:17:14;;;;;;;5.70;0.83;;;17.10;99.90;;;;;;5007604;28;20811;-75
2022/09/15 05:19:41;;;;;;;0.90;0.80;;;17.10;99.90;;;;;;5000466;28;20628;-77
2022/09/15 05:22:09;;;;;;;1.30;0.70;;;17.20;99.90;;;;;;4998639;28;20647;-75
2022/09/15 05:24:36;;;;;;;0.50;0.50;;;17.20;99.90;;;;;;4990083;28;20673;-76
2022/09/15 05:27:03;;;;;;;1.83;1.17;;;17.20;99.90;;;;;;5001809;28;20612;-76
2022/09/15 05:29:30;;;;;;;4.40;1.10;;;17.10;99.90;;;;;;5002153;28;20620;-75
2022/09/15 05:31:56;;;;;;;0.80;0.80;;;17.20;99.90;;;;;;5004975;28;20636;-77
2022/09/15 05:34:23;;;;;;;0.60;0.60;;;17.20;99.90;;;;;;4995698;28;20636;-76
2022/09/15 05:36:50;;;;;;;1.00;0.90;;;17.20;99.90;;;;;;5005459;28;20636;-76
2022/09/15 05:39:18;;;;;;;0.70;0.70;;;17.20;99.90;;;;;;5004901;28;20995;-76
2022/09/15 05:41:45;;;;;;;0.60;0.60;;;17.20;99.90;;;;;;5006730;28;20635;-76
2022/09/15 05:44:12;;;;;;;0.90;0.90;;;17.30;99.90;;;;;;5006622;28;20668;-77
2022/09/15 05:46:39;;;;;;;0.50;0.50;;;17.30;99.90;;;;;;5001789;28;20634;-75
2022/09/15 05:49:07;;;;;;;0.70;0.70;;;17.20;99.90;;;;;;5007645;28;20636;-76
2022/09/15 05:51:34;;;;;;;0.50;0.50;;;17.30;99.90;;;;;;5010765;28;20636;-76
2022/09/15 05:54:01;;;;;;;0.40;0.30;;;17.30;99.90;;;;;;5010069;28;20634;-76
2022/09/15 05:56:30;;;;;;;0.70;0.70;;;17.30;99.90;;;;;;5009297;28;20653;-76
2022/09/15 05:58:57;;;;;;;0.70;0.70;;;17.30;99.90;;;;;;4999785;28;21134;-75
2022/09/15 06:01:25;;;;;;;1.03;0.67;;;17.30;99.90;;;;;;5006380;28;20646;-76
2022/09/15 06:03:53;;;;;;;0.67;0.60;;;17.30;99.90;;;;;;5007812;28;20620;-75
2022/09/15 06:06:20;;;;;;;0.50;0.50;;;17.40;99.90;;;;;;5009519;28;20723;-76
2022/09/15 06:08:49;;;;;;;0.57;0.40;;;17.40;99.90;;;;;;5010246;28;20721;-75
2022/09/15 06:11:18;;;;;;;0.37;0.30;;;17.40;99.90;;;;;;5009563;28;21596;-75
2022/09/15 06:13:47;;;;;;;1.57;0.90;;;17.40;99.90;;;;;;4995373;28;20632;-75
2022/09/15 06:16:15;;;;;;;0.47;0.47;;;17.40;99.90;;;;;;4995825;28;20632;-75
2022/09/15 06:18:42;;;;;;;0.47;0.47;;;17.50;99.90;;;;;;5010272;28;20684;-76
2022/09/15 06:21:11;;;;;;;0.50;0.50;;;17.50;99.90;;;;;;5009401;28;20994;-75
2022/09/15 06:23:39;;;;;;;0.63;0.50;;;17.50;99.90;;;;;;5008322;28;20624;-76
2022/09/15 06:26:08;;;;;;;0.60;0.60;;;17.60;99.90;;;;;;5008206;28;21234;-75
2022/09/15 06:28:35;;;;;;;0.40;0.40;;;17.40;99.90;;;;;;5010115;28;20624;-75
2022/09/15 06:31:04;;;;;;;0.40;0.30;;;17.40;99.90;;;;;;5002021;28;20711;-75
2022/09/15 06:33:31;;;;;;;0.60;0.40;;;17.40;99.90;;;;;;5005765;28;20674;-76
2022/09/15 06:36:01;;;;;;;0.90;0.60;;;17.40;99.90;;;;;;4999120;28;21273;-76
2022/09/15 06:38:28;;;;;;;1.07;0.73;;;17.40;99.90;;;;;;4985444;28;20632;-76
2022/09/15 06:40:56;;;;;;;0.57;0.57;;;17.40;99.90;;;;;;4985222;28;20639;-75
2022/09/15 06:43:23;;;;;;;0.50;0.50;;;17.40;99.90;;;;;;4986124;28;20736;-76
2022/09/15 06:45:50;;;;;;;0.63;0.50;;;17.50;99.90;;;;;;4985585;28;20682;-76
2022/09/15 06:48:18;;;;;;;0.70;0.50;;;17.50;99.90;;;;;;4993778;28;20624;-77
2022/09/15 06:50:52;;;;;;;0.73;0.43;;;17.50;99.90;;;;;;4987351;28;20637;-75
2022/09/15 06:53:19;;;;;;;0.80;0.73;;;17.50;99.90;;;;;;4989055;28;20699;-75
2022/09/15 06:55:46;;;;;;;0.47;0.47;;;17.40;99.90;;;;;;4995171;28;20736;-75
2022/09/15 06:58:12;;;;;;;0.80;0.60;;;17.50;99.90;;;;;;5000020;28;20644;-76
2022/09/15 07:00:39;;;;;;;0.40;0.27;;;17.30;99.90;;;;;;4985096;28;20637;-77
2022/09/15 07:03:06;;;;;;;0.60;0.60;;;17.40;99.90;;;;;;4995814;28;20658;-77
2022/09/15 07:05:34;;;;;;;1.00;0.90;;;17.30;99.90;;;;;;4999355;28;21031;-75
2022/09/15 07:08:01;;;;;;;1.60;0.50;;;17.40;99.90;;;;;;5003767;28;20632;-75
2022/09/15 07:10:28;;;;;;;0.40;0.40;;;17.40;99.90;;;;;;5006007;28;20995;-75
2022/09/15 07:12:55;;;;;;;1.00;1.00;;;17.40;99.90;;;;;;5009418;28;20634;-76
2022/09/15 07:15:24;;;;;;;0.93;0.60;;;17.40;99.90;;;;;;5004864;28;20756;-76
2022/09/15 07:17:51;;;;;;;2.80;1.20;;;17.30;99.90;;;;;;5005767;28;20685;-75
2022/09/15 07:20:18;;;;;;;0.63;0.63;;;17.30;99.90;;;;;;5004453;28;20648;-76
2022/09/15 07:22:46;;;;;;;0.70;0.70;;;17.20;99.90;;;;;;5005337;28;20632;-76
2022/09/15 07:25:13;;;;;;;0.50;0.50;;;17.30;99.90;;;;;;5003508;28;20718;-75
2022/09/15 07:27:40;;;;;;;0.37;0.30;;;17.30;99.90;;;;;;5002584;28;20636;-75
2022/09/15 07:30:07;;;;;;;0.80;0.60;;;17.30;99.90;;;;;;4991588;28;20640;-77
2022/09/15 07:32:34;;;;;;;0.47;0.30;;;17.30;99.90;;;;;;4998425;28;20639;-76
2022/09/15 07:35:01;;;;;;;0.40;0.33;;;17.30;99.90;;;;;;4992935;28;20618;-76
2022/09/15 07:37:28;;;;;;;0.40;0.40;;;17.30;99.90;;;;;;5003770;28;20632;-77
2022/09/15 07:39:56;;;;;;;0.50;0.43;;;17.30;99.90;;;;;;4995189;28;20652;-77
2022/09/15 07:42:24;;;;;;;0.50;0.40;;;17.30;99.90;;;;;;4984059;28;20638;-76
2022/09/15 07:44:51;;;;;;;0.47;0.47;;;17.30;99.90;;;;;;4997593;28;21236;-77
2022/09/15 07:47:18;;;;;;;0.43;0.33;;;17.30;99.90;;;;;;5002871;28;20640;-76
2022/09/15 07:49:45;;;;;;;14.00;10.33;;;17.30;99.90;;;;;;5002515;28;20640;-76
2022/09/15 07:52:12;;;;;;;5.83;2.07;;;17.30;99.90;;;;;;5002216;28;20631;-76
2022/09/15 07:54:39;;;;;;;3.40;2.30;;;17.30;99.90;;;;;;5002327;28;20632;-76
2022/09/15 07:57:07;;;;;;;0.87;0.50;;;17.30;99.90;;;;;;5002298;28;21051;-77
2022/09/15 07:59:34;;;;;;;0.50;0.50;;;17.30;99.90;;;;;;4989096;28;20636;-75
2022/09/15 08:02:00;;;;;;;0.67;0.57;;;17.30;99.90;;;;;;5001052;28;20654;-77
2022/09/15 08:04:27;;;;;;;0.40;0.40;;;17.30;99.90;;;;;;4995390;28;20636;-76
2022/09/15 08:06:54;;;;;;;0.53;0.53;;;17.30;99.90;;;;;;5002559;28;20636;-76
2022/09/15 08:09:21;;;;;;;0.50;0.50;;;17.30;99.90;;;;;;5002357;28;20640;-77
2022/09/15 08:11:48;;;;;;;0.50;0.50;;;17.30;99.90;;;;;;4986289;28;20657;-78
2022/09/15 08:14:16;;;;;;;1.20;0.80;;;17.30;99.90;;;;;;5001692;28;20651;-76
2022/09/15 08:16:43;;;;;;;0.87;0.60;;;17.50;99.90;;;;;;5001697;28;20840;-76
2022/09/15 08:19:11;;;;;;;0.83;0.80;;;17.30;99.90;;;;;;5002711;28;20744;-76
2022/09/15 08:21:38;;;;;;;0.57;0.40;;;17.30;99.90;;;;;;5002260;28;20639;-77
2022/09/15 08:24:05;;;;;;;0.40;0.40;;;17.40;99.90;;;;;;4993273;28;20644;-76
2022/09/15 08:26:35;;;;;;;0.53;0.53;;;17.30;99.90;;;;;;5001407;28;20682;-76
2022/09/15 08:29:01;;;;;;;0.50;0.50;;;17.30;99.90;;;;;;4994743;28;20631;-77
2022/09/15 08:31:30;;;;;;;0.67;0.67;;;17.30;99.90;;;;;;5001532;28;20652;-76
2022/09/15 08:33:57;;;;;;;2.00;0.90;;;17.30;99.90;;;;;;5002186;28;20671;-76
2022/09/15 08:36:26;;;;;;;0.70;0.57;;;17.40;99.90;;;;;;5001407;28;20646;-76
2022/09/15 08:38:53;;;;;;;0.50;0.50;;;17.30;99.90;;;;;;5002172;28;20635;-78
2022/09/15 08:41:25;;;;;;;0.50;0.40;;;17.40;99.90;;;;;;5001467;28;21255;-77
2022/09/15 08:43:58;;;;;;;0.67;0.67;;;17.40;99.90;;;;;;5002155;28;21190;-76
2022/09/15 08:46:30;;;;;;;0.63;0.63;;;17.60;99.90;;;;;;4999660;28;20723;-76
2022/09/15 08:49:05;;;;;;;0.63;0.63;;;17.60;99.90;;;;;;5001147;28;20627;-76
2022/09/15 08:51:37;;;;;;;0.87;0.87;;;17.60;99.90;;;;;;5000447;28;20605;-75
2022/09/15 08:54:11;;;;;;;0.57;0.57;;;17.60;99.90;;;;;;4999654;28;21125;-76
2022/09/15 08:56:40;;;;;;;0.60;0.60;;;17.60;99.90;;;;;;5006476;28;20628;-78
2022/09/15 08:59:10;;;;;;;0.63;0.63;;;17.70;99.90;;;;;;4998251;28;20622;-78
2022/09/15 09:01:57;;;;;;;0.80;0.80;;;17.60;99.90;;;;;;5007042;28;21019;-77
2022/09/15 09:04:35;;;;;;;0.50;0.40;;;17.70;99.90;;;;;;4986306;28;20631;-78
2022/09/15 09:07:14;;;;;;;0.83;0.83;;;17.70;99.90;;;;;;4985164;28;21182;-77
2022/09/15 09:09:49;;;;;;;0.60;0.60;;;17.70;99.90;;;;;;4989873;28;20991;-78
2022/09/15 09:12:41;;;;;;;0.43;0.43;;;17.70;99.90;;;;;;5004441;28;20624;-78
2022/09/15 09:15:23;;;;;;;1.23;0.93;;;17.80;99.90;;;;;;5005684;28;20632;-77
2022/09/15 09:18:13;;;;;;;0.60;0.60;;;17.80;99.90;;;;;;5006475;28;20659;-77
2022/09/15 09:20:52;;;;;;;7.63;1.40;;;17.70;99.90;;;;;;5005833;28;20747;-77
2022/09/15 09:23:23;;;;;;;0.63;0.53;;;17.70;99.90;;;;;;5006627;28;21185;-78
2022/09/15 09:25:51;;;;;;;0.60;0.50;;;17.70;99.90;;;;;;5009824;28;20670;-78
2022/09/15 09:28:28;;;;;;;1.00;1.00;;;17.80;99.90;;;;;;5011112;28;21089;-76
2022/09/15 09:30:59;;;;;;;0.60;0.30;;;17.90;99.90;;;;;;5003001;28;20643;-77
2022/09/15 09:33:29;;;;;;;0.50;0.50;;;17.90;99.90;;;;;;5009151;28;20625;-77
2022/09/15 09:36:01;;;;;;;0.60;0.57;;;17.90;99.90;;;;;;5010094;28;20623;-77
2022/09/15 09:38:31;;;;;;;0.40;0.37;;;17.90;99.90;;;;;;5005424;28;20660;-77
2022/09/15 09:40:58;;;;;;;0.47;0.47;;;18.00;99.90;;;;;;5006929;28;20654;-77
2022/09/15 09:43:26;;;;;;;0.70;0.60;;;18.00;99.90;;;;;;4999215;28;20636;-78
2022/09/15 09:45:53;;;;;;;0.40;0.40;;;17.90;99.90;;;;;;5009540;28;20660;-77
2022/09/15 09:48:23;;;;;;;0.50;0.50;;;18.00;99.90;;;;;;5010496;28;20739;-77
2022/09/15 09:50:50;;;;;;;0.50;0.50;;;18.00;99.90;;;;;;5009594;28;20707;-78
2022/09/15 09:53:24;;;;;;;0.50;0.50;;;18.00;99.90;;;;;;5004776;28;21294;-76
2022/09/15 09:55:53;;;;;;;0.50;0.50;;;18.00;99.90;;;;;;4990149;28;21178;-77
2022/09/15 09:58:22;;;;;;;0.70;0.70;;;18.00;99.90;;;;;;4994641;28;20641;-77
2022/09/15 10:00:49;;;;;;;0.77;0.50;;;18.00;99.90;;;;;;4991613;28;20661;-78
2022/09/15 10:03:19;;;;;;;1.87;1.10;;;18.00;99.90;;;;;;4998523;28;20644;-77
2022/09/15 10:06:01;;;;;;;0.70;0.53;;;18.20;99.90;;;;;;5008421;28;21257;-77
2022/09/15 10:08:30;;;;;;;0.50;0.50;;;18.20;99.90;;;;;;5008822;28;20738;-77
2022/09/15 10:11:02;;;;;;;0.40;0.30;;;18.20;99.90;;;;;;5008860;28;20648;-77
2022/09/15 10:13:29;;;;;;;0.60;0.60;;;18.10;99.90;;;;;;4999117;28;20631;-78
2022/09/15 10:15:59;;;;;;;0.47;0.47;;;18.10;99.90;;;;;;5009706;28;20726;-77
2022/09/15 10:18:33;;;;;;;0.53;0.53;;;17.90;99.90;;;;;;5009903;28;20642;-77
2022/09/15 10:21:01;;;;;;;0.30;0.27;;;17.70;99.90;;;;;;5004380;28;20642;-77
2022/09/15 10:23:30;;;;;;;0.30;0.27;;;17.60;99.90;;;;;;4995182;28;20647;-77
2022/09/15 10:26:34;;;;;;;1.10;0.30;;;17.30;99.90;;;;;;5009112;28;20666;-77
2022/09/15 10:29:12;;;;;;;0.77;0.60;;;17.20;99.90;;;;;;4990538;28;20620;-77
2022/09/15 10:31:40;;;;;;;0.30;0.20;;;17.20;99.90;;;;;;5001722;28;20642;-77
2022/09/15 10:34:29;;;;;;;0.40;0.20;;;17.10;99.90;;;;;;5003300;28;20640;-77
2022/09/15 10:37:05;;;;;;;0.40;0.20;;;17.00;99.90;;;;;;4993236;28;20687;-77
2022/09/15 10:39:44;;;;;;;0.40;0.40;;;16.90;99.90;;;;;;4990374;28;20644;-77
2022/09/15 10:42:23;;;;;;;0.40;0.40;;;16.80;99.90;;;;;;5004848;28;20636;-78
2022/09/15 10:45:00;;;;;;;0.30;0.20;;;16.70;99.90;;;;;;5009401;28;20630;-78
2022/09/15 10:47:38;;;;;;;0.93;0.23;;;16.50;99.90;;;;;;5007994;28;20675;-76
2022/09/15 10:50:12;;;;;;;1.67;0.30;;;16.40;99.90;;;;;;5008899;28;20689;-77
2022/09/15 10:52:51;;;;;;;0.30;0.20;;;16.50;99.90;;;;;;5008780;28;20661;-77
2022/09/15 10:55:35;;;;;;;0.30;0.30;;;16.30;99.90;;;;;;5007795;28;20616;-78
2022/09/15 10:58:16;;;;;;;0.80;0.27;;;16.40;99.90;;;;;;5007248;28;21222;-77
2022/09/15 11:00:50;;;;;;;0.30;0.20;;;16.30;99.90;;;;;;5003596;28;20638;-78
2022/09/15 11:03:32;;;;;;;0.47;0.33;;;16.30;99.90;;;;;;5005596;28;20705;-78
2022/09/15 11:06:12;;;;;;;0.50;0.43;;;16.20;99.90;;;;;;5008545;28;20686;-77
2022/09/15 11:09:17;;;;;;;0.50;0.40;;;15.90;99.90;;;;;;5008754;28;20632;-77
2022/09/15 11:11:55;;;;;;;0.40;0.30;;;15.90;99.90;;;;;;4989621;28;20627;-76
2022/09/15 11:14:36;;;;;;;0.60;0.47;;;15.70;99.90;;;;;;5003502;28;21193;-77
2022/09/15 11:17:17;;;;;;;0.43;0.43;;;15.60;99.90;;;;;;5008785;28;20640;-77
2022/09/15 11:19:56;;;;;;;1.03;0.50;;;15.50;99.90;;;;;;5008275;28;20639;-78
2022/09/15 11:22:27;;;;;;;0.57;0.57;;;15.40;99.90;;;;;;4999472;28;20680;-77
2022/09/15 11:24:58;;;;;;;0.90;0.73;;;15.30;99.90;;;;;;5006172;28;20992;-78
2022/09/15 11:27:30;;;;;;;1.50;1.03;;;15.30;99.90;;;;;;4992716;28;20747;-77
2022/09/15 11:30:07;;;;;;;1.97;1.03;;;15.30;99.90;;;;;;4997938;28;20683;-77
2022/09/15 11:32:43;;;;;;;1.10;0.97;;;15.20;99.90;;;;;;5005498;28;20642;-77
2022/09/15 11:35:34;;;;;;;1.67;1.10;;;15.20;99.90;;;;;;5007984;28;20639;-78
2022/09/15 11:38:13;;;;;;;0.80;0.70;;;14.90;99.90;;;;;;5004745;28;20628;-79
2022/09/15 11:40:47;;;;;;;0.80;0.80;;;14.50;99.90;;;;;;4989032;28;20984;-78
2022/09/15 11:43:20;;;;;;;1.40;1.30;;;14.80;99.90;;;;;;5002592;28;21250;-77
2022/09/15 11:45:53;;;;;;;1.60;0.90;;;15.00;99.90;;;;;;5007462;28;20655;-78
2022/09/15 11:48:25;;;;;;;1.40;1.03;;;14.90;99.90;;;;;;5008006;28;20632;-78
2022/09/15 11:50:55;;;;;;;0.70;0.70;;;14.90;99.90;;;;;;5006880;28;20720;-77
2022/09/15 11:53:30;;;;;;;0.97;0.83;;;14.80;99.90;;;;;;5007496;28;20971;-77
2022/09/15 11:56:06;;;;;;;1.03;0.93;;;14.70;99.90;;;;;;5004519;28;20643;-77
2022/09/15 11:58:50;;;;;;;1.80;1.13;;;14.60;99.90;;;;;;5000634;28;21254;-77
2022/09/15 12:01:21;;;;;;;1.10;0.87;;;14.60;99.90;;;;;;5003748;28;20651;-78
2022/09/15 12:03:51;;;;;;;2.77;1.20;;;14.60;99.90;;;;;;4995193;28;20636;-77
2022/09/15 12:06:24;;;;;;;1.63;1.53;;;14.60;99.90;;;;;;5003506;28;20661;-79
2022/09/15 12:08:56;;;;;;;1.23;1.23;;;14.70;99.90;;;;;;4997571;28;20724;-77
2022/09/15 12:11:26;;;;;;;1.33;1.23;;;14.70;99.90;;;;;;4995436;28;20640;-77
2022/09/15 12:13:54;;;;;;;1.13;1.03;;;14.70;99.90;;;;;;4994950;28;21321;-77
2022/09/15 12:16:23;;;;;;;2.23;1.30;;;14.70;99.90;;;;;;4995608;28;20631;-77
2022/09/15 12:18:54;;;;;;;2.10;1.53;;;14.70;99.90;;;;;;4995435;28;20624;-79
2022/09/15 12:21:32;;;;;;;1.80;1.60;;;14.60;99.90;;;;;;4999113;28;20632;-77
2022/09/15 12:24:09;;;;;;;1.63;1.27;;;14.50;99.90;;;;;;5005187;28;20641;-77
2022/09/15 12:26:36;;;;;;;2.00;1.77;;;14.40;99.90;;;;;;5007880;28;20675;-77
2022/09/15 12:29:04;;;;;;;1.53;1.43;;;14.50;99.90;;;;;;5005791;28;20620;-79
2022/09/15 12:31:39;;;;;;;2.07;1.50;;;14.40;99.90;;;;;;4993331;28;20632;-78
2022/09/15 12:34:35;;;;;;;1.27;1.20;;;14.70;99.90;;;;;;4996754;28;21061;-78
2022/09/15 12:37:08;;;;;;;2.60;1.50;;;14.70;99.90;;;;;;4994848;28;20632;-78
2022/09/15 12:39:41;;;;;;;2.40;2.17;;;14.80;99.90;;;;;;5006801;28;20644;-78
2022/09/15 12:42:17;;;;;;;10.90;2.17;;;14.90;99.90;;;;;;5002082;28;20646;-78
2022/09/15 12:44:47;;;;;;;1.70;1.60;;;14.70;99.90;;;;;;4996327;28;21214;-78
2022/09/15 12:47:31;;;;;;;1.90;1.77;;;14.80;99.90;;;;;;4997233;28;20664;-78
2022/09/15 12:50:08;;;;;;;2.70;1.47;;;14.80;99.90;;;;;;4994375;28;20615;-78
2022/09/15 12:52:45;;;;;;;2.70;2.03;;;14.80;99.90;;;;;;4995338;28;20638;-78
2022/09/15 12:55:19;;;;;;;1.57;1.27;;;14.80;99.90;;;;;;4996788;28;20687;-78
2022/09/15 12:57:52;;;;;;;2.00;1.80;;;14.90;99.90;;;;;;4993898;28;20633;-77
2022/09/15 13:00:38;;;;;;;1.37;1.37;;;15.00;99.90;;;;;;4997650;28;20620;-78
2022/09/15 13:03:25;;;;;;;2.07;1.63;;;15.00;99.90;;;;;;4997498;28;20636;-78
2022/09/15 13:06:16;;;;;;;1.67;1.57;;;15.00;99.90;;;;;;4995923;28;20621;-77
2022/09/15 13:08:54;;;;;;;1.33;1.23;;;15.20;99.90;;;;;;4996214;28;20723;-77